RJTJ(METAR)
04/28 17:00
METAR RJTJ 280800Z 08006KT 040V130 9999 FEW030 BKN080 19/06 Q1004
RMK 1CU030 5AC080 A2966=
戻る
トップページへ戻る
IMOC Co,.Ltd.